createdAt,value
2022-09-30T00:02:12.227Z,7.94
2022-09-30T00:04:43.618Z,7.95
2022-09-30T00:07:14.945Z,7.72
2022-09-30T00:09:47.969Z,7.85
2022-09-30T00:12:19.694Z,7.62
2022-09-30T00:14:51.027Z,7.72
2022-09-30T00:17:23.362Z,7.76
2022-09-30T00:19:54.654Z,7.68
2022-09-30T00:22:25.976Z,7.66
2022-09-30T00:24:57.291Z,7.49
2022-09-30T00:27:28.855Z,7.63
2022-09-30T00:30:00.180Z,7.63
2022-09-30T00:32:31.521Z,7.44
2022-09-30T00:35:02.951Z,7.54
2022-09-30T00:37:34.281Z,7.35
2022-09-30T00:40:06.082Z,7.37
2022-09-30T00:42:40.956Z,7.56
2022-09-30T00:45:13.629Z,7.34
2022-09-30T00:48:11.340Z,7.51
2022-09-30T00:50:47.057Z,7.44
2022-09-30T00:53:30.017Z,7.46
2022-09-30T00:56:07.401Z,7.32
2022-09-30T00:59:02.329Z,7.28
2022-09-30T01:01:35.994Z,7.40
2022-09-30T01:04:13.222Z,7.40
2022-09-30T01:06:44.590Z,7.43
2022-09-30T01:09:16.936Z,7.44
2022-09-30T01:11:48.600Z,7.48
2022-09-30T01:14:23.358Z,7.49
2022-09-30T01:17:20.725Z,7.48
2022-09-30T01:20:29.367Z,7.45
2022-09-30T01:23:33.135Z,7.44
2022-09-30T01:26:36.894Z,7.43
2022-09-30T01:29:33.629Z,7.42
2022-09-30T01:32:31.538Z,7.38
2022-09-30T01:35:15.406Z,7.49
2022-09-30T01:37:49.409Z,7.53
2022-09-30T01:40:26.824Z,7.58
2022-09-30T01:43:11.887Z,7.66
2022-09-30T01:46:00.101Z,7.81
2022-09-30T01:48:53.343Z,7.91
2022-09-30T01:51:38.193Z,8.01
2022-09-30T01:54:37.661Z,8.00
2022-09-30T01:57:24.509Z,7.97
2022-09-30T02:00:07.303Z,8.23
2022-09-30T02:02:46.683Z,8.30
2022-09-30T02:05:24.601Z,8.36
2022-09-30T02:08:07.856Z,8.36
2022-09-30T02:10:47.386Z,8.51
2022-09-30T02:13:24.588Z,8.57
2022-09-30T02:16:01.222Z,8.56
2022-09-30T02:18:42.116Z,8.62
2022-09-30T02:21:17.637Z,8.56
2022-09-30T02:23:54.206Z,8.46
2022-09-30T02:26:29.617Z,8.48
2022-09-30T02:29:05.812Z,8.41
2022-09-30T02:31:42.848Z,8.37
2022-09-30T02:34:26.996Z,8.30
2022-09-30T02:37:14.638Z,8.30
2022-09-30T02:40:07.766Z,8.28
2022-09-30T02:42:41.464Z,8.23
2022-09-30T02:45:16.708Z,8.25
2022-09-30T02:47:58.821Z,8.23
2022-09-30T02:50:33.018Z,8.20
2022-09-30T02:53:18.490Z,8.17
2022-09-30T02:56:16.729Z,8.11
2022-09-30T02:58:50.866Z,8.07
2022-09-30T03:01:22.718Z,8.03
2022-09-30T03:03:58.873Z,8.03
2022-09-30T03:06:30.394Z,7.94
2022-09-30T03:09:01.771Z,7.89
2022-09-30T03:11:33.207Z,7.93
2022-09-30T03:14:32.811Z,7.92
2022-09-30T03:17:28.895Z,7.90
2022-09-30T03:20:25.680Z,7.86
2022-09-30T03:23:37.880Z,7.82
2022-09-30T03:26:39.777Z,7.78
2022-09-30T03:29:28.164Z,7.65
2022-09-30T03:32:21.065Z,7.70
2022-09-30T03:35:24.838Z,7.70
2022-09-30T03:38:23.898Z,7.68
2022-09-30T03:41:08.323Z,7.59
2022-09-30T03:43:55.810Z,7.61
2022-09-30T03:46:34.715Z,7.59
2022-09-30T03:49:10.776Z,7.62
2022-09-30T03:51:42.496Z,7.57
2022-09-30T03:54:14.543Z,7.51
2022-09-30T03:56:45.806Z,7.41
2022-09-30T03:59:24.208Z,7.41
2022-09-30T04:01:57.436Z,7.42
2022-09-30T04:04:28.753Z,7.39
2022-09-30T04:07:00.246Z,7.38
2022-09-30T04:09:31.568Z,7.27
2022-09-30T04:12:03.938Z,7.33
2022-09-30T04:14:35.814Z,7.27
2022-09-30T04:17:07.110Z,7.16
2022-09-30T04:19:40.212Z,7.26
2022-09-30T04:22:11.652Z,7.29
2022-09-30T04:24:43.811Z,7.22
2022-09-30T04:27:15.230Z,7.39
2022-09-30T04:29:46.551Z,7.44
2022-09-30T04:32:17.866Z,7.50
2022-09-30T04:34:49.122Z,7.58
2022-09-30T04:37:21.173Z,7.57
2022-09-30T04:39:52.570Z,7.63
2022-09-30T04:42:24.311Z,7.61
2022-09-30T04:44:55.721Z,7.58
2022-09-30T04:47:27.016Z,7.50
2022-09-30T04:49:58.306Z,7.43
2022-09-30T04:52:29.605Z,7.36
2022-09-30T04:55:00.874Z,7.30
2022-09-30T04:57:32.193Z,7.26
2022-09-30T05:00:05.350Z,7.19
2022-09-30T05:02:36.658Z,7.15
2022-09-30T05:05:08.424Z,7.01
2022-09-30T05:07:40.649Z,7.03
2022-09-30T05:10:12.553Z,6.98
2022-09-30T05:12:45.101Z,6.96
2022-09-30T05:15:16.504Z,6.94
2022-09-30T05:17:50.896Z,6.89
2022-09-30T05:20:22.227Z,6.91
2022-09-30T05:22:56.931Z,6.91
2022-09-30T05:25:28.425Z,6.90
2022-09-30T05:27:59.878Z,6.81
2022-09-30T05:30:31.198Z,6.87
2022-09-30T05:33:02.468Z,6.84
2022-09-30T05:35:34.745Z,6.80
2022-09-30T05:38:06.032Z,6.78
2022-09-30T05:40:41.443Z,6.53
2022-09-30T05:43:12.817Z,6.69
2022-09-30T05:45:55.255Z,6.69
2022-09-30T05:48:27.394Z,6.66
2022-09-30T05:51:00.843Z,6.62
2022-09-30T05:53:32.933Z,6.65
2022-09-30T05:56:08.860Z,6.66
2022-09-30T05:58:41.879Z,6.69
2022-09-30T06:01:15.103Z,6.76
2022-09-30T06:03:47.457Z,6.82
2022-09-30T06:06:22.016Z,6.90
2022-09-30T06:08:53.305Z,6.97
2022-09-30T06:11:25.159Z,7.06
2022-09-30T06:13:57.290Z,7.11
2022-09-30T06:16:28.691Z,7.21
2022-09-30T06:18:59.969Z,7.40
2022-09-30T06:21:31.447Z,7.52
2022-09-30T06:24:03.138Z,7.66
2022-09-30T06:26:34.384Z,7.79
2022-09-30T06:29:05.762Z,7.95
2022-09-30T06:31:37.262Z,8.08
2022-09-30T06:34:10.497Z,8.24
2022-09-30T06:36:41.935Z,8.37
2022-09-30T06:39:13.861Z,8.48
2022-09-30T06:41:45.341Z,8.68
2022-09-30T06:44:16.763Z,8.84
2022-09-30T06:46:53.664Z,8.99
2022-09-30T06:49:32.962Z,9.15
2022-09-30T06:52:12.568Z,9.26
2022-09-30T06:54:44.101Z,9.46
2022-09-30T06:57:15.414Z,9.61
2022-09-30T06:59:47.132Z,9.75
2022-09-30T07:02:18.815Z,9.90
2022-09-30T07:04:50.225Z,10.00
2022-09-30T07:07:22.026Z,10.21
2022-09-30T07:09:58.853Z,10.36
2022-09-30T07:12:30.964Z,10.51
2022-09-30T07:15:02.382Z,10.69
2022-09-30T07:17:33.705Z,10.74
2022-09-30T07:20:05.402Z,10.97
2022-09-30T07:22:36.678Z,11.14
2022-09-30T07:25:09.668Z,11.29
2022-09-30T07:27:41.285Z,11.43
2022-09-30T07:30:20.388Z,11.58
2022-09-30T07:32:56.004Z,11.73
2022-09-30T07:35:27.341Z,11.88
2022-09-30T07:37:59.755Z,11.89
2022-09-30T07:40:31.293Z,12.08
2022-09-30T07:43:03.155Z,12.28
2022-09-30T07:45:37.689Z,12.37
2022-09-30T07:48:29.019Z,12.57
2022-09-30T07:51:00.447Z,12.70
2022-09-30T07:53:32.379Z,12.88
2022-09-30T07:56:08.168Z,13.04
2022-09-30T07:58:39.553Z,13.19
2022-09-30T08:01:11.942Z,13.30
2022-09-30T08:03:44.933Z,13.52
2022-09-30T08:06:18.285Z,13.65
2022-09-30T08:08:52.557Z,13.79
2022-09-30T08:11:24.942Z,13.95
2022-09-30T08:13:56.838Z,14.15
2022-09-30T08:16:28.196Z,14.16
2022-09-30T08:19:02.382Z,14.35
2022-09-30T08:21:33.646Z,14.52
2022-09-30T08:24:05.156Z,14.61
2022-09-30T08:26:36.744Z,14.82
2022-09-30T08:29:12.384Z,14.90
2022-09-30T08:31:45.588Z,15.00
2022-09-30T08:34:17.554Z,15.10
2022-09-30T08:36:48.806Z,15.20
2022-09-30T08:39:20.126Z,15.28
2022-09-30T08:42:35.574Z,15.41
2022-09-30T08:45:20.038Z,15.50
2022-09-30T08:48:02.959Z,15.47
2022-09-30T08:51:03.225Z,15.45
2022-09-30T08:53:41.241Z,15.53
2022-09-30T08:56:25.646Z,15.63
2022-09-30T08:59:06.800Z,15.76
2022-09-30T09:01:42.733Z,15.91
2022-09-30T09:04:14.834Z,16.05
2022-09-30T09:07:01.330Z,16.12
2022-09-30T09:09:42.610Z,16.22
2022-09-30T09:12:40.357Z,16.29
2022-09-30T09:15:23.721Z,16.36
2022-09-30T09:18:23.769Z,16.45
2022-09-30T09:21:03.664Z,16.58
2022-09-30T09:23:35.606Z,16.64
2022-09-30T09:26:09.393Z,16.76
2022-09-30T09:29:15.184Z,16.86
2022-09-30T09:31:48.236Z,16.82
2022-09-30T09:34:19.665Z,16.72
2022-09-30T09:37:08.475Z,16.78
2022-09-30T09:40:04.176Z,16.80
2022-09-30T09:43:09.907Z,16.84
2022-09-30T09:46:04.132Z,17.02
2022-09-30T09:48:35.933Z,17.18
2022-09-30T09:51:28.605Z,17.30
2022-09-30T09:54:04.941Z,17.46
2022-09-30T09:56:37.768Z,17.55
2022-09-30T09:59:15.986Z,17.58
2022-09-30T10:01:54.061Z,17.63
2022-09-30T10:04:29.446Z,17.70
2022-09-30T10:07:21.891Z,17.64
2022-09-30T10:10:23.574Z,17.58
2022-09-30T10:12:55.566Z,17.65
2022-09-30T10:15:27.456Z,17.79
2022-09-30T10:18:00.835Z,17.97
2022-09-30T10:20:34.802Z,18.11
2022-09-30T10:23:19.856Z,18.19
2022-09-30T10:26:03.627Z,18.19
2022-09-30T10:28:50.364Z,18.28
2022-09-30T10:31:33.164Z,18.44
2022-09-30T10:34:28.726Z,18.48
2022-09-30T10:37:14.394Z,18.36
2022-09-30T10:39:55.462Z,18.36
2022-09-30T10:42:31.235Z,18.53
2022-09-30T10:45:17.934Z,18.60
2022-09-30T10:47:55.333Z,18.68
2022-09-30T10:50:27.699Z,18.76
2022-09-30T10:53:04.469Z,18.91
2022-09-30T10:55:42.978Z,19.22
2022-09-30T10:58:25.865Z,19.57
2022-09-30T11:01:09.315Z,19.81
2022-09-30T11:03:54.675Z,19.76
2022-09-30T11:06:28.548Z,19.77
2022-09-30T11:09:20.413Z,19.76
2022-09-30T11:11:57.599Z,19.80
2022-09-30T11:14:43.367Z,19.82
2022-09-30T11:17:25.867Z,19.79
2022-09-30T11:20:10.746Z,19.68
2022-09-30T11:22:51.554Z,19.67
2022-09-30T11:26:01.353Z,19.69
2022-09-30T11:29:03.213Z,19.75
2022-09-30T11:31:56.384Z,19.71
2022-09-30T11:34:47.078Z,19.81
2022-09-30T11:37:33.462Z,19.85
2022-09-30T11:40:29.364Z,19.86
2022-09-30T11:43:14.071Z,19.93
2022-09-30T11:46:08.847Z,19.98
2022-09-30T11:49:00.238Z,19.97
2022-09-30T11:51:43.920Z,19.96
2022-09-30T11:54:33.469Z,19.90
2022-09-30T11:57:13.679Z,19.97
2022-09-30T11:59:58.104Z,20.13
2022-09-30T12:02:37.598Z,20.07
2022-09-30T12:05:34.211Z,19.94
2022-09-30T12:08:19.811Z,19.74
2022-09-30T12:10:55.618Z,19.42
2022-09-30T12:13:29.725Z,19.16
2022-09-30T12:16:04.678Z,19.05
2022-09-30T12:18:41.114Z,19.07
2022-09-30T12:21:21.848Z,19.18
2022-09-30T12:24:03.452Z,19.23
2022-09-30T12:26:35.152Z,19.22
2022-09-30T12:29:48.564Z,19.27
2022-09-30T12:32:36.180Z,19.47
2022-09-30T12:35:37.851Z,19.51
2022-09-30T12:38:43.154Z,19.65
2022-09-30T12:41:40.979Z,19.56
2022-09-30T12:44:41.154Z,19.35
2022-09-30T12:47:24.235Z,19.13
2022-09-30T12:49:59.160Z,18.98
2022-09-30T12:52:33.534Z,18.82
2022-09-30T12:55:28.062Z,18.68
2022-09-30T12:58:03.168Z,18.69
2022-09-30T13:00:36.129Z,18.79
2022-09-30T13:03:15.362Z,18.71
2022-09-30T13:05:56.199Z,18.77
2022-09-30T13:08:44.120Z,18.78
2022-09-30T13:11:42.746Z,18.84
2022-09-30T13:14:37.737Z,18.93
2022-09-30T13:17:09.338Z,18.91
2022-09-30T13:19:45.494Z,18.95
2022-09-30T13:22:19.939Z,19.01
2022-09-30T13:25:00.545Z,19.09
2022-09-30T13:27:44.286Z,19.17
2022-09-30T13:30:15.583Z,19.21
2022-09-30T13:32:57.477Z,19.13
2022-09-30T13:35:40.705Z,18.97
2022-09-30T13:38:12.136Z,18.78
2022-09-30T13:41:01.812Z,18.63
2022-09-30T13:43:39.548Z,18.60
2022-09-30T13:46:16.730Z,18.66
2022-09-30T13:48:53.322Z,18.71
2022-09-30T13:51:27.838Z,18.79
2022-09-30T13:54:06.779Z,18.85
2022-09-30T13:56:40.728Z,18.80
2022-09-30T13:59:41.566Z,18.80
2022-09-30T14:02:31.657Z,18.85
2022-09-30T14:05:15.473Z,18.97
2022-09-30T14:08:31.727Z,19.11
2022-09-30T14:11:22.480Z,19.08
2022-09-30T14:14:27.881Z,18.99
2022-09-30T14:17:34.331Z,18.89
2022-09-30T14:20:24.045Z,18.80
2022-09-30T14:22:56.666Z,18.81
2022-09-30T14:25:38.690Z,18.84
2022-09-30T14:28:17.708Z,18.72
2022-09-30T14:31:08.085Z,18.83
2022-09-30T14:33:42.670Z,18.85
2022-09-30T14:36:18.846Z,18.85
2022-09-30T14:38:58.517Z,18.72
2022-09-30T14:41:31.330Z,18.49
2022-09-30T14:44:08.069Z,18.31
2022-09-30T14:46:43.249Z,18.22
2022-09-30T14:49:19.476Z,18.25
2022-09-30T14:51:51.079Z,18.32
2022-09-30T14:54:26.496Z,18.33
2022-09-30T14:57:01.505Z,18.34
2022-09-30T14:59:36.653Z,18.33
2022-09-30T15:02:18.337Z,18.29
2022-09-30T15:04:52.737Z,18.14
2022-09-30T15:07:24.082Z,18.09
2022-09-30T15:10:01.607Z,17.87
2022-09-30T15:12:36.965Z,17.72
2022-09-30T15:15:37.789Z,17.69
2022-09-30T15:18:45.940Z,17.72
2022-09-30T15:21:17.521Z,17.72
2022-09-30T15:23:52.344Z,17.80
2022-09-30T15:26:25.612Z,17.75
2022-09-30T15:28:57.889Z,17.64
2022-09-30T15:31:31.703Z,17.55
2022-09-30T15:34:24.291Z,17.54
2022-09-30T15:37:10.476Z,17.34
2022-09-30T15:40:05.408Z,17.35
2022-09-30T15:42:45.896Z,17.25
2022-09-30T15:45:18.495Z,17.14
2022-09-30T15:47:56.382Z,17.01
2022-09-30T15:50:38.147Z,16.90
2022-09-30T15:53:25.392Z,16.77
2022-09-30T15:55:59.396Z,16.55
2022-09-30T15:58:39.310Z,16.55
2022-09-30T16:01:21.411Z,16.38
2022-09-30T16:04:02.576Z,16.32
2022-09-30T16:06:43.070Z,16.23
2022-09-30T16:09:20.045Z,16.08
2022-09-30T16:12:12.514Z,15.97
2022-09-30T16:14:50.838Z,15.84
2022-09-30T16:17:29.265Z,15.72
2022-09-30T16:20:07.765Z,15.59
2022-09-30T16:22:41.851Z,15.48
2022-09-30T16:25:31.912Z,15.37
2022-09-30T16:28:14.850Z,15.22
2022-09-30T16:30:50.043Z,15.08
2022-09-30T16:33:21.433Z,14.97
2022-09-30T16:35:52.723Z,14.81
2022-09-30T16:38:24.018Z,14.71
2022-09-30T16:40:55.572Z,14.58
2022-09-30T16:43:26.886Z,14.46
2022-09-30T16:45:59.805Z,14.32
2022-09-30T16:48:31.489Z,14.22
2022-09-30T16:51:16.888Z,14.08
2022-09-30T16:53:48.225Z,13.95
2022-09-30T16:56:19.985Z,13.77
2022-09-30T16:58:51.349Z,13.70
2022-09-30T17:01:25.538Z,13.41
2022-09-30T17:03:57.783Z,13.36
2022-09-30T17:06:32.093Z,13.35
2022-09-30T17:09:04.835Z,13.23
2022-09-30T17:11:38.013Z,13.10
2022-09-30T17:14:09.762Z,12.98
2022-09-30T17:16:41.161Z,12.86
2022-09-30T17:19:13.512Z,12.75
2022-09-30T17:21:44.992Z,12.61
2022-09-30T17:24:16.693Z,12.56
2022-09-30T17:26:48.019Z,12.47
2022-09-30T17:29:31.859Z,12.36
2022-09-30T17:32:03.977Z,12.26
2022-09-30T17:34:35.345Z,12.17
2022-09-30T17:39:42.885Z,11.96
2022-09-30T17:42:33.990Z,11.87
2022-09-30T17:45:05.893Z,11.77
2022-09-30T17:47:39.566Z,11.66
2022-09-30T17:50:12.800Z,11.58
2022-09-30T17:52:44.205Z,11.50
2022-09-30T17:55:15.585Z,11.30
2022-09-30T17:57:46.853Z,11.29
2022-09-30T18:00:19.267Z,11.25
2022-09-30T18:02:50.528Z,11.19
2022-09-30T18:05:23.344Z,11.06
2022-09-30T18:07:54.684Z,10.98
2022-09-30T18:10:27.132Z,10.99
2022-09-30T18:12:59.630Z,10.95
2022-09-30T18:15:31.113Z,10.79
2022-09-30T18:18:02.370Z,10.85
2022-09-30T18:20:33.637Z,10.81
2022-09-30T18:23:04.998Z,10.80
2022-09-30T18:25:36.580Z,10.79
2022-09-30T18:28:08.754Z,10.79
2022-09-30T18:30:40.339Z,10.71
2022-09-30T18:33:11.835Z,10.82
2022-09-30T18:35:43.411Z,10.82
2022-09-30T18:38:14.948Z,10.66
2022-09-30T18:40:46.327Z,10.80
2022-09-30T18:43:17.680Z,10.80
2022-09-30T18:45:53.946Z,10.81
2022-09-30T18:48:26.304Z,10.81
2022-09-30T18:51:03.209Z,10.76
2022-09-30T18:53:34.785Z,10.74
2022-09-30T18:56:06.340Z,10.84
2022-09-30T18:58:39.310Z,10.85
2022-09-30T19:01:11.138Z,10.84
2022-09-30T19:03:42.557Z,10.82
2022-09-30T19:06:14.885Z,10.82
2022-09-30T19:08:46.159Z,10.81
2022-09-30T19:11:18.517Z,10.79
2022-09-30T19:13:52.530Z,10.75
2022-09-30T19:16:25.965Z,10.72
2022-09-30T19:19:01.301Z,10.71
2022-09-30T19:21:36.757Z,10.69
2022-09-30T19:24:09.071Z,10.66
2022-09-30T19:26:40.808Z,10.54
2022-09-30T19:29:12.179Z,10.57
2022-09-30T19:31:45.219Z,10.49
2022-09-30T19:34:29.822Z,10.52
2022-09-30T19:37:03.406Z,10.49
2022-09-30T19:39:44.632Z,10.42
2022-09-30T19:42:18.267Z,10.36
2022-09-30T19:44:49.787Z,10.33
2022-09-30T19:47:21.099Z,10.32
2022-09-30T19:49:55.147Z,10.24
2022-09-30T19:52:27.470Z,10.27
2022-09-30T19:55:09.515Z,10.29
2022-09-30T19:57:44.720Z,10.27
2022-09-30T20:00:16.050Z,10.24
2022-09-30T20:02:47.440Z,10.22
2022-09-30T20:05:18.770Z,10.18
2022-09-30T20:07:51.160Z,10.15
2022-09-30T20:10:23.966Z,10.01
2022-09-30T20:12:55.263Z,10.09
2022-09-30T20:15:46.348Z,10.03
2022-09-30T20:18:19.671Z,10.03
2022-09-30T20:20:50.982Z,10.00
2022-09-30T20:23:22.380Z,9.89
2022-09-30T20:25:54.120Z,9.96
2022-09-30T20:28:25.433Z,9.88
2022-09-30T20:30:56.836Z,9.94
2022-09-30T20:33:28.184Z,9.94
2022-09-30T20:36:01.349Z,9.95
2022-09-30T20:38:33.396Z,9.92
2022-09-30T20:41:05.910Z,9.95
2022-09-30T20:43:37.177Z,9.94
2022-09-30T20:46:09.478Z,9.90
2022-09-30T20:48:41.150Z,9.84
2022-09-30T20:51:14.798Z,9.92
2022-09-30T20:53:50.871Z,9.94
2022-09-30T20:56:23.978Z,9.94
2022-09-30T20:58:55.230Z,9.95
2022-09-30T21:01:26.569Z,9.91
2022-09-30T21:03:57.922Z,9.98
2022-09-30T21:06:30.084Z,9.91
2022-09-30T21:09:03.366Z,9.99
2022-09-30T21:11:35.095Z,9.99
2022-09-30T21:14:07.154Z,9.96
2022-09-30T21:16:38.615Z,9.96
2022-09-30T21:19:10.350Z,9.99
2022-09-30T21:21:41.594Z,9.98
2022-09-30T21:24:16.097Z,9.97
2022-09-30T21:26:47.367Z,9.98
2022-09-30T21:29:18.975Z,10.00
2022-09-30T21:31:50.378Z,9.96
2022-09-30T21:34:21.785Z,10.03
2022-09-30T21:36:53.268Z,10.04
2022-09-30T21:39:24.511Z,10.06
2022-09-30T21:41:55.883Z,9.99
2022-09-30T21:44:27.318Z,10.06
2022-09-30T21:46:58.576Z,10.05
2022-09-30T21:49:30.008Z,10.06
2022-09-30T21:52:01.673Z,10.06
2022-09-30T21:54:33.040Z,10.07
2022-09-30T21:57:05.267Z,10.08
2022-09-30T21:59:38.635Z,10.11
2022-09-30T22:02:10.977Z,10.15
2022-09-30T22:04:42.271Z,10.19
2022-09-30T22:07:15.344Z,10.23
2022-09-30T22:09:46.585Z,10.30
2022-09-30T22:12:17.873Z,10.36
2022-09-30T22:14:49.153Z,10.44
2022-09-30T22:17:20.406Z,10.52
2022-09-30T22:19:51.749Z,10.51
2022-09-30T22:22:24.677Z,10.59
2022-09-30T22:24:55.937Z,10.66
2022-09-30T22:27:27.293Z,10.69
2022-09-30T22:29:59.686Z,10.62
2022-09-30T22:32:31.099Z,10.73
2022-09-30T22:35:21.819Z,10.68
2022-09-30T22:38:11.763Z,10.74
2022-09-30T22:40:43.230Z,10.68
2022-09-30T22:43:15.214Z,10.70
2022-09-30T22:45:47.711Z,10.66
2022-09-30T22:48:19.233Z,10.55
2022-09-30T22:50:50.487Z,10.57
2022-09-30T22:53:21.808Z,10.51
2022-09-30T22:55:53.569Z,10.39
2022-09-30T22:58:26.190Z,10.36
2022-09-30T23:00:58.728Z,10.31
2022-09-30T23:03:30.090Z,10.38
2022-09-30T23:06:05.090Z,10.28
2022-09-30T23:08:41.651Z,10.35
2022-09-30T23:11:16.355Z,10.39
2022-09-30T23:13:47.702Z,10.43
2022-09-30T23:16:19.053Z,10.48
2022-09-30T23:18:50.581Z,10.56
2022-09-30T23:21:22.055Z,10.63
2022-09-30T23:23:53.713Z,10.41
2022-09-30T23:26:27.348Z,10.60
2022-09-30T23:29:04.347Z,10.73
2022-09-30T23:31:36.123Z,10.75
2022-09-30T23:34:07.832Z,10.70
2022-09-30T23:36:39.162Z,10.68
2022-09-30T23:39:19.371Z,10.84
2022-09-30T23:41:50.844Z,10.83
2022-09-30T23:44:22.123Z,10.82
2022-09-30T23:47:12.355Z,10.79
2022-09-30T23:49:43.820Z,10.71
2022-09-30T23:52:15.311Z,10.72
2022-09-30T23:54:47.119Z,10.68
2022-09-30T23:57:18.402Z,10.63
2022-09-30T23:59:49.699Z,10.61
